sensor_id;sensor_type;location;lat;lon;timestamp;temperature;humidity
27797;DHT22;15177;50.844;4.412;2022-11-23T00:00:46;10.30;99.90
27797;DHT22;15177;50.844;4.412;2022-11-23T00:03:15;10.30;99.90
27797;DHT22;15177;50.844;4.412;2022-11-23T00:05:42;10.30;99.90
27797;DHT22;15177;50.844;4.412;2022-11-23T00:08:07;10.40;99.90
27797;DHT22;15177;50.844;4.412;2022-11-23T00:10:34;10.30;99.90
27797;DHT22;15177;50.844;4.412;2022-11-23T00:13:00;10.40;99.90
27797;DHT22;15177;50.844;4.412;2022-11-23T00:15:25;10.30;99.90
27797;DHT22;15177;50.844;4.412;2022-11-23T00:17:51;10.30;99.90
27797;DHT22;15177;50.844;4.412;2022-11-23T00:20:19;10.40;99.90
27797;DHT22;15177;50.844;4.412;2022-11-23T00:22:45;10.40;99.90
27797;DHT22;15177;50.844;4.412;2022-11-23T00:25:11;10.40;99.90
27797;DHT22;15177;50.844;4.412;2022-11-23T00:27:37;10.40;99.90
27797;DHT22;15177;50.844;4.412;2022-11-23T00:30:03;10.40;99.90
27797;DHT22;15177;50.844;4.412;2022-11-23T00:32:29;10.40;99.90
27797;DHT22;15177;50.844;4.412;2022-11-23T00:34:55;10.40;99.90
27797;DHT22;15177;50.844;4.412;2022-11-23T00:37:22;10.50;99.90
27797;DHT22;15177;50.844;4.412;2022-11-23T00:39:47;10.50;99.90
27797;DHT22;15177;50.844;4.412;2022-11-23T00:42:13;10.50;99.90
27797;DHT22;15177;50.844;4.412;2022-11-23T00:44:39;10.50;99.90
27797;DHT22;15177;50.844;4.412;2022-11-23T00:47:04;10.50;99.90
27797;DHT22;15177;50.844;4.412;2022-11-23T00:49:31;10.50;99.90
27797;DHT22;15177;50.844;4.412;2022-11-23T00:51:57;10.60;99.90
27797;DHT22;15177;50.844;4.412;2022-11-23T00:54:22;10.50;99.90
27797;DHT22;15177;50.844;4.412;2022-11-23T00:56:48;10.40;99.90
27797;DHT22;15177;50.844;4.412;2022-11-23T00:59:14;10.40;99.90
27797;DHT22;15177;50.844;4.412;2022-11-23T01:01:39;10.40;99.90
27797;DHT22;15177;50.844;4.412;2022-11-23T01:04:06;10.40;99.90
27797;DHT22;15177;50.844;4.412;2022-11-23T01:06:35;10.40;99.90
27797;DHT22;15177;50.844;4.412;2022-11-23T01:09:05;10.40;99.90
27797;DHT22;15177;50.844;4.412;2022-11-23T01:11:31;10.40;99.90
27797;DHT22;15177;50.844;4.412;2022-11-23T01:13:57;10.40;99.90
27797;DHT22;15177;50.844;4.412;2022-11-23T01:16:28;10.40;99.90
27797;DHT22;15177;50.844;4.412;2022-11-23T01:18:56;10.40;99.90
27797;DHT22;15177;50.844;4.412;2022-11-23T01:21:23;10.40;99.90
27797;DHT22;15177;50.844;4.412;2022-11-23T01:23:49;10.30;99.90
27797;DHT22;15177;50.844;4.412;2022-11-23T01:26:14;10.30;99.90
27797;DHT22;15177;50.844;4.412;2022-11-23T01:28:40;10.40;99.90
27797;DHT22;15177;50.844;4.412;2022-11-23T01:31:08;10.40;99.90
27797;DHT22;15177;50.844;4.412;2022-11-23T01:33:36;10.40;99.90
27797;DHT22;15177;50.844;4.412;2022-11-23T01:38:38;10.40;99.90
27797;DHT22;15177;50.844;4.412;2022-11-23T01:41:05;10.40;99.90
27797;DHT22;15177;50.844;4.412;2022-11-23T01:43:31;10.50;99.90
27797;DHT22;15177;50.844;4.412;2022-11-23T01:45:59;10.50;99.90
27797;DHT22;15177;50.844;4.412;2022-11-23T01:48:38;10.50;99.90
27797;DHT22;15177;50.844;4.412;2022-11-23T01:51:14;10.40;99.90
27797;DHT22;15177;50.844;4.412;2022-11-23T01:53:41;10.40;99.90
27797;DHT22;15177;50.844;4.412;2022-11-23T01:56:10;10.50;99.90
27797;DHT22;15177;50.844;4.412;2022-11-23T01:58:42;10.40;99.90
27797;DHT22;15177;50.844;4.412;2022-11-23T02:01:08;10.50;99.90
27797;DHT22;15177;50.844;4.412;2022-11-23T02:03:35;10.40;99.90
27797;DHT22;15177;50.844;4.412;2022-11-23T02:06:04;10.50;99.90
27797;DHT22;15177;50.844;4.412;2022-11-23T02:08:32;10.50;99.90
27797;DHT22;15177;50.844;4.412;2022-11-23T02:10:59;10.50;99.90
27797;DHT22;15177;50.844;4.412;2022-11-23T02:13:26;10.40;99.90
27797;DHT22;15177;50.844;4.412;2022-11-23T02:15:54;10.40;99.90
27797;DHT22;15177;50.844;4.412;2022-11-23T02:18:24;10.50;99.90
27797;DHT22;15177;50.844;4.412;2022-11-23T02:20:52;10.50;99.90
27797;DHT22;15177;50.844;4.412;2022-11-23T02:23:58;10.40;99.90
27797;DHT22;15177;50.844;4.412;2022-11-23T02:26:31;10.40;99.90
27797;DHT22;15177;50.844;4.412;2022-11-23T02:29:08;10.40;99.90
27797;DHT22;15177;50.844;4.412;2022-11-23T02:31:35;10.40;99.90
27797;DHT22;15177;50.844;4.412;2022-11-23T02:34:01;10.40;99.90
27797;DHT22;15177;50.844;4.412;2022-11-23T02:36:42;10.40;99.90
27797;DHT22;15177;50.844;4.412;2022-11-23T02:39:20;10.40;99.90
27797;DHT22;15177;50.844;4.412;2022-11-23T02:41:49;10.40;99.90
27797;DHT22;15177;50.844;4.412;2022-11-23T02:47:18;10.50;99.90
27797;DHT22;15177;50.844;4.412;2022-11-23T02:49:46;10.40;99.90
27797;DHT22;15177;50.844;4.412;2022-11-23T02:52:12;10.30;99.90
27797;DHT22;15177;50.844;4.412;2022-11-23T02:54:40;10.30;99.90
27797;DHT22;15177;50.844;4.412;2022-11-23T02:57:06;10.40;99.90
27797;DHT22;15177;50.844;4.412;2022-11-23T02:59:33;10.30;99.90
27797;DHT22;15177;50.844;4.412;2022-11-23T03:02:00;10.20;99.90
27797;DHT22;15177;50.844;4.412;2022-11-23T03:04:25;10.30;99.90
27797;DHT22;15177;50.844;4.412;2022-11-23T03:06:52;10.40;99.90
27797;DHT22;15177;50.844;4.412;2022-11-23T03:09:17;10.40;99.90
27797;DHT22;15177;50.844;4.412;2022-11-23T03:11:43;10.40;99.90
27797;DHT22;15177;50.844;4.412;2022-11-23T03:14:09;10.50;99.90
27797;DHT22;15177;50.844;4.412;2022-11-23T03:16:34;10.40;99.90
27797;DHT22;15177;50.844;4.412;2022-11-23T03:19:00;10.30;99.90
27797;DHT22;15177;50.844;4.412;2022-11-23T03:21:26;10.30;99.90
27797;DHT22;15177;50.844;4.412;2022-11-23T03:23:52;10.30;99.90
27797;DHT22;15177;50.844;4.412;2022-11-23T03:26:17;10.40;99.90
27797;DHT22;15177;50.844;4.412;2022-11-23T03:28:43;10.40;99.90
27797;DHT22;15177;50.844;4.412;2022-11-23T03:31:09;10.50;99.90
27797;DHT22;15177;50.844;4.412;2022-11-23T03:33:35;10.50;99.90
27797;DHT22;15177;50.844;4.412;2022-11-23T03:36:01;10.50;99.90
27797;DHT22;15177;50.844;4.412;2022-11-23T03:38:27;10.50;99.90
27797;DHT22;15177;50.844;4.412;2022-11-23T03:40:52;10.50;99.90
27797;DHT22;15177;50.844;4.412;2022-11-23T03:43:19;10.40;99.90
27797;DHT22;15177;50.844;4.412;2022-11-23T03:45:45;10.40;99.90
27797;DHT22;15177;50.844;4.412;2022-11-23T03:48:11;10.30;99.90
27797;DHT22;15177;50.844;4.412;2022-11-23T03:50:37;10.30;99.90
27797;DHT22;15177;50.844;4.412;2022-11-23T03:53:02;10.30;99.90
27797;DHT22;15177;50.844;4.412;2022-11-23T03:55:28;10.20;99.90
27797;DHT22;15177;50.844;4.412;2022-11-23T03:57:54;10.20;99.90
27797;DHT22;15177;50.844;4.412;2022-11-23T04:00:24;10.10;99.90
27797;DHT22;15177;50.844;4.412;2022-11-23T04:02:50;10.00;99.90
27797;DHT22;15177;50.844;4.412;2022-11-23T04:05:16;10.10;99.90
27797;DHT22;15177;50.844;4.412;2022-11-23T04:07:42;10.10;99.90
27797;DHT22;15177;50.844;4.412;2022-11-23T04:10:07;10.20;99.90
27797;DHT22;15177;50.844;4.412;2022-11-23T04:12:33;10.20;99.90
27797;DHT22;15177;50.844;4.412;2022-11-23T04:14:59;10.10;99.90
27797;DHT22;15177;50.844;4.412;2022-11-23T04:17:24;10.10;99.90
27797;DHT22;15177;50.844;4.412;2022-11-23T04:19:50;10.00;99.90
27797;DHT22;15177;50.844;4.412;2022-11-23T04:22:15;10.10;99.90
27797;DHT22;15177;50.844;4.412;2022-11-23T04:24:41;10.00;99.90
27797;DHT22;15177;50.844;4.412;2022-11-23T04:27:07;10.00;99.90
27797;DHT22;15177;50.844;4.412;2022-11-23T04:29:34;10.00;99.90
27797;DHT22;15177;50.844;4.412;2022-11-23T04:32:00;10.00;99.90
27797;DHT22;15177;50.844;4.412;2022-11-23T04:34:25;10.00;99.90
27797;DHT22;15177;50.844;4.412;2022-11-23T04:36:51;10.00;99.90
27797;DHT22;15177;50.844;4.412;2022-11-23T04:39:17;10.00;99.90
27797;DHT22;15177;50.844;4.412;2022-11-23T04:41:42;10.00;99.90
27797;DHT22;15177;50.844;4.412;2022-11-23T04:44:08;10.00;99.90
27797;DHT22;15177;50.844;4.412;2022-11-23T04:46:33;9.90;99.90
27797;DHT22;15177;50.844;4.412;2022-11-23T04:49:01;9.80;99.90
27797;DHT22;15177;50.844;4.412;2022-11-23T04:51:26;9.80;99.90
27797;DHT22;15177;50.844;4.412;2022-11-23T04:53:52;9.70;99.90
27797;DHT22;15177;50.844;4.412;2022-11-23T04:56:17;9.60;99.90
27797;DHT22;15177;50.844;4.412;2022-11-23T04:58:43;9.70;99.90
27797;DHT22;15177;50.844;4.412;2022-11-23T05:01:09;9.80;99.90
27797;DHT22;15177;50.844;4.412;2022-11-23T05:03:34;9.70;99.90
27797;DHT22;15177;50.844;4.412;2022-11-23T05:06:01;9.70;99.90
27797;DHT22;15177;50.844;4.412;2022-11-23T05:08:27;9.60;99.90
27797;DHT22;15177;50.844;4.412;2022-11-23T05:10:55;9.60;99.90
27797;DHT22;15177;50.844;4.412;2022-11-23T05:13:21;9.40;99.90
27797;DHT22;15177;50.844;4.412;2022-11-23T05:15:46;9.30;99.90
27797;DHT22;15177;50.844;4.412;2022-11-23T05:18:12;9.30;99.90
27797;DHT22;15177;50.844;4.412;2022-11-23T05:20:38;9.30;99.90
27797;DHT22;15177;50.844;4.412;2022-11-23T05:23:05;9.20;99.90
27797;DHT22;15177;50.844;4.412;2022-11-23T05:25:31;9.30;99.90
27797;DHT22;15177;50.844;4.412;2022-11-23T05:27:56;9.10;99.90
27797;DHT22;15177;50.844;4.412;2022-11-23T05:30:22;9.00;99.90
27797;DHT22;15177;50.844;4.412;2022-11-23T05:32:48;9.00;99.90
27797;DHT22;15177;50.844;4.412;2022-11-23T05:35:14;9.00;99.90
27797;DHT22;15177;50.844;4.412;2022-11-23T05:37:40;9.00;99.90
27797;DHT22;15177;50.844;4.412;2022-11-23T05:40:07;8.80;99.90
27797;DHT22;15177;50.844;4.412;2022-11-23T05:42:33;8.80;99.90
27797;DHT22;15177;50.844;4.412;2022-11-23T05:44:59;8.70;99.90
27797;DHT22;15177;50.844;4.412;2022-11-23T05:47:24;8.60;99.90
27797;DHT22;15177;50.844;4.412;2022-11-23T05:49:50;8.50;99.90
27797;DHT22;15177;50.844;4.412;2022-11-23T05:52:16;8.60;99.90
27797;DHT22;15177;50.844;4.412;2022-11-23T05:54:42;8.50;99.90
27797;DHT22;15177;50.844;4.412;2022-11-23T05:57:08;8.60;99.90
27797;DHT22;15177;50.844;4.412;2022-11-23T05:59:33;8.60;99.90
27797;DHT22;15177;50.844;4.412;2022-11-23T06:01:59;8.60;99.90
27797;DHT22;15177;50.844;4.412;2022-11-23T06:04:25;8.50;99.90
27797;DHT22;15177;50.844;4.412;2022-11-23T06:06:50;8.40;99.90
27797;DHT22;15177;50.844;4.412;2022-11-23T06:09:19;8.60;99.90
27797;DHT22;15177;50.844;4.412;2022-11-23T06:11:45;8.70;99.90
27797;DHT22;15177;50.844;4.412;2022-11-23T06:14:13;8.60;99.90
27797;DHT22;15177;50.844;4.412;2022-11-23T06:16:38;8.50;99.90
27797;DHT22;15177;50.844;4.412;2022-11-23T06:19:04;8.40;99.90
27797;DHT22;15177;50.844;4.412;2022-11-23T06:21:30;8.30;99.90
27797;DHT22;15177;50.844;4.412;2022-11-23T06:23:55;8.20;99.90
27797;DHT22;15177;50.844;4.412;2022-11-23T06:26:21;8.30;99.90
27797;DHT22;15177;50.844;4.412;2022-11-23T06:28:47;8.30;99.90
27797;DHT22;15177;50.844;4.412;2022-11-23T06:31:14;8.30;99.90
27797;DHT22;15177;50.844;4.412;2022-11-23T06:33:39;8.20;99.90
27797;DHT22;15177;50.844;4.412;2022-11-23T06:36:05;8.10;99.90
27797;DHT22;15177;50.844;4.412;2022-11-23T06:38:32;8.10;99.90
27797;DHT22;15177;50.844;4.412;2022-11-23T06:41:01;8.00;99.90
27797;DHT22;15177;50.844;4.412;2022-11-23T06:43:28;8.00;99.90
27797;DHT22;15177;50.844;4.412;2022-11-23T06:45:54;8.20;99.90
27797;DHT22;15177;50.844;4.412;2022-11-23T06:48:20;8.10;99.90
27797;DHT22;15177;50.844;4.412;2022-11-23T06:50:46;8.20;99.90
27797;DHT22;15177;50.844;4.412;2022-11-23T06:53:15;8.30;99.90
27797;DHT22;15177;50.844;4.412;2022-11-23T06:55:41;8.10;99.90
27797;DHT22;15177;50.844;4.412;2022-11-23T06:58:07;8.00;99.90
27797;DHT22;15177;50.844;4.412;2022-11-23T07:00:33;7.90;99.90
27797;DHT22;15177;50.844;4.412;2022-11-23T07:02:59;8.00;99.90
27797;DHT22;15177;50.844;4.412;2022-11-23T07:05:25;8.10;99.90
27797;DHT22;15177;50.844;4.412;2022-11-23T07:07:51;8.00;99.90
27797;DHT22;15177;50.844;4.412;2022-11-23T07:10:17;8.00;99.90
27797;DHT22;15177;50.844;4.412;2022-11-23T07:12:43;7.90;99.90
27797;DHT22;15177;50.844;4.412;2022-11-23T07:15:09;7.90;99.90
27797;DHT22;15177;50.844;4.412;2022-11-23T07:17:39;7.80;99.90
27797;DHT22;15177;50.844;4.412;2022-11-23T07:20:07;8.00;99.90
27797;DHT22;15177;50.844;4.412;2022-11-23T07:22:33;8.10;99.90
27797;DHT22;15177;50.844;4.412;2022-11-23T07:24:59;7.90;99.90
27797;DHT22;15177;50.844;4.412;2022-11-23T07:27:24;7.60;99.90
27797;DHT22;15177;50.844;4.412;2022-11-23T07:29:51;7.60;99.90
27797;DHT22;15177;50.844;4.412;2022-11-23T07:32:19;7.70;99.90
27797;DHT22;15177;50.844;4.412;2022-11-23T07:34:45;7.60;99.90
27797;DHT22;15177;50.844;4.412;2022-11-23T07:37:11;7.40;99.90
27797;DHT22;15177;50.844;4.412;2022-11-23T07:39:38;7.50;99.90
27797;DHT22;15177;50.844;4.412;2022-11-23T07:42:04;7.70;99.90
27797;DHT22;15177;50.844;4.412;2022-11-23T07:44:30;7.70;99.90
27797;DHT22;15177;50.844;4.412;2022-11-23T07:46:56;7.70;99.90
27797;DHT22;15177;50.844;4.412;2022-11-23T07:49:22;7.80;99.90
27797;DHT22;15177;50.844;4.412;2022-11-23T07:51:47;7.70;99.90
27797;DHT22;15177;50.844;4.412;2022-11-23T07:54:13;7.70;99.90
27797;DHT22;15177;50.844;4.412;2022-11-23T07:56:38;7.90;99.90
27797;DHT22;15177;50.844;4.412;2022-11-23T07:59:04;8.00;99.90
27797;DHT22;15177;50.844;4.412;2022-11-23T08:01:30;7.90;99.90
27797;DHT22;15177;50.844;4.412;2022-11-23T08:03:56;8.00;99.90
27797;DHT22;15177;50.844;4.412;2022-11-23T08:06:22;7.90;99.90
27797;DHT22;15177;50.844;4.412;2022-11-23T08:08:47;7.90;99.90
27797;DHT22;15177;50.844;4.412;2022-11-23T08:11:13;8.00;99.90
27797;DHT22;15177;50.844;4.412;2022-11-23T08:13:41;8.20;99.90
27797;DHT22;15177;50.844;4.412;2022-11-23T08:16:07;8.30;99.90
27797;DHT22;15177;50.844;4.412;2022-11-23T08:18:34;8.30;99.90
27797;DHT22;15177;50.844;4.412;2022-11-23T08:21:00;8.40;99.90
27797;DHT22;15177;50.844;4.412;2022-11-23T08:23:27;8.50;99.90
27797;DHT22;15177;50.844;4.412;2022-11-23T08:25:53;8.40;99.90
27797;DHT22;15177;50.844;4.412;2022-11-23T08:28:19;8.50;99.90
27797;DHT22;15177;50.844;4.412;2022-11-23T08:30:47;8.60;99.90
27797;DHT22;15177;50.844;4.412;2022-11-23T08:33:13;8.60;99.90
27797;DHT22;15177;50.844;4.412;2022-11-23T08:35:42;8.60;99.90
27797;DHT22;15177;50.844;4.412;2022-11-23T08:38:10;8.70;99.90
27797;DHT22;15177;50.844;4.412;2022-11-23T08:40:37;8.80;99.90
27797;DHT22;15177;50.844;4.412;2022-11-23T08:43:05;8.70;99.90
27797;DHT22;15177;50.844;4.412;2022-11-23T08:45:32;8.60;99.90
27797;DHT22;15177;50.844;4.412;2022-11-23T08:48:02;8.70;99.90
27797;DHT22;15177;50.844;4.412;2022-11-23T08:50:29;8.90;99.90
27797;DHT22;15177;50.844;4.412;2022-11-23T08:52:59;9.00;99.90
27797;DHT22;15177;50.844;4.412;2022-11-23T08:55:27;8.90;99.90
27797;DHT22;15177;50.844;4.412;2022-11-23T08:57:55;8.80;99.90
27797;DHT22;15177;50.844;4.412;2022-11-23T09:00:21;8.60;99.90
27797;DHT22;15177;50.844;4.412;2022-11-23T09:02:47;8.80;99.90
27797;DHT22;15177;50.844;4.412;2022-11-23T09:05:13;9.00;99.90
27797;DHT22;15177;50.844;4.412;2022-11-23T09:07:39;8.90;99.90
27797;DHT22;15177;50.844;4.412;2022-11-23T09:10:05;9.10;99.90
27797;DHT22;15177;50.844;4.412;2022-11-23T09:12:32;9.00;99.90
27797;DHT22;15177;50.844;4.412;2022-11-23T09:14:58;9.10;99.90
27797;DHT22;15177;50.844;4.412;2022-11-23T09:17:23;9.10;99.90
27797;DHT22;15177;50.844;4.412;2022-11-23T09:19:49;9.10;99.90
27797;DHT22;15177;50.844;4.412;2022-11-23T09:22:15;9.30;99.90
27797;DHT22;15177;50.844;4.412;2022-11-23T09:24:41;9.50;99.90
27797;DHT22;15177;50.844;4.412;2022-11-23T09:27:06;9.70;99.90
27797;DHT22;15177;50.844;4.412;2022-11-23T09:29:32;9.50;99.90
27797;DHT22;15177;50.844;4.412;2022-11-23T09:31:58;9.40;99.90
27797;DHT22;15177;50.844;4.412;2022-11-23T09:34:25;9.50;99.90
27797;DHT22;15177;50.844;4.412;2022-11-23T09:36:51;9.70;99.90
27797;DHT22;15177;50.844;4.412;2022-11-23T09:39:17;9.60;99.90
27797;DHT22;15177;50.844;4.412;2022-11-23T09:52:49;9.90;99.90
27797;DHT22;15177;50.844;4.412;2022-11-23T09:55:41;9.60;99.90
27797;DHT22;15177;50.844;4.412;2022-11-23T09:58:13;9.60;99.90
27797;DHT22;15177;50.844;4.412;2022-11-23T10:03:17;10.20;99.90
27797;DHT22;15177;50.844;4.412;2022-11-23T10:06:01;10.40;99.90
27797;DHT22;15177;50.844;4.412;2022-11-23T10:11:30;10.50;99.90
27797;DHT22;15177;50.844;4.412;2022-11-23T10:17:09;10.40;99.90
27797;DHT22;15177;50.844;4.412;2022-11-23T10:19:59;10.30;99.90
27797;DHT22;15177;50.844;4.412;2022-11-23T10:23:00;10.30;99.90
27797;DHT22;15177;50.844;4.412;2022-11-23T10:25:48;10.30;99.90
27797;DHT22;15177;50.844;4.412;2022-11-23T10:28:19;10.10;99.90
27797;DHT22;15177;50.844;4.412;2022-11-23T10:31:10;9.70;99.90
27797;DHT22;15177;50.844;4.412;2022-11-23T10:36:25;10.00;99.90
27797;DHT22;15177;50.844;4.412;2022-11-23T10:38:57;9.90;99.90
27797;DHT22;15177;50.844;4.412;2022-11-23T10:41:25;9.80;99.90
27797;DHT22;15177;50.844;4.412;2022-11-23T10:46:50;9.90;99.90
27797;DHT22;15177;50.844;4.412;2022-11-23T10:51:59;10.30;99.90
27797;DHT22;15177;50.844;4.412;2022-11-23T10:54:31;10.30;99.90
27797;DHT22;15177;50.844;4.412;2022-11-23T10:57:32;10.30;99.90
27797;DHT22;15177;50.844;4.412;2022-11-23T11:02:24;10.20;99.90
27797;DHT22;15177;50.844;4.412;2022-11-23T11:07:57;10.50;99.90
27797;DHT22;15177;50.844;4.412;2022-11-23T11:10:39;10.60;99.90
27797;DHT22;15177;50.844;4.412;2022-11-23T11:13:41;10.80;99.90
27797;DHT22;15177;50.844;4.412;2022-11-23T11:18:45;10.90;99.90
27797;DHT22;15177;50.844;4.412;2022-11-23T11:21:41;10.80;99.90
27797;DHT22;15177;50.844;4.412;2022-11-23T11:24:32;10.70;99.90
27797;DHT22;15177;50.844;4.412;2022-11-23T11:27:13;10.70;99.90
27797;DHT22;15177;50.844;4.412;2022-11-23T11:35:00;11.30;99.90
27797;DHT22;15177;50.844;4.412;2022-11-23T11:37:56;11.30;99.90
27797;DHT22;15177;50.844;4.412;2022-11-23T11:40:27;11.50;99.90
27797;DHT22;15177;50.844;4.412;2022-11-23T11:43:20;11.60;99.90
27797;DHT22;15177;50.844;4.412;2022-11-23T11:45:50;11.50;99.90
27797;DHT22;15177;50.844;4.412;2022-11-23T11:48:33;11.50;99.90
27797;DHT22;15177;50.844;4.412;2022-11-23T11:51:25;11.20;99.90
27797;DHT22;15177;50.844;4.412;2022-11-23T12:02:30;11.40;99.90
27797;DHT22;15177;50.844;4.412;2022-11-23T12:09:59;11.40;99.90
27797;DHT22;15177;50.844;4.412;2022-11-23T12:12:32;11.60;99.90
27797;DHT22;15177;50.844;4.412;2022-11-23T12:14:59;11.40;99.90
27797;DHT22;15177;50.844;4.412;2022-11-23T12:26:36;11.40;99.90
27797;DHT22;15177;50.844;4.412;2022-11-23T12:40:39;11.10;99.90
27797;DHT22;15177;50.844;4.412;2022-11-23T12:43:25;11.10;99.90
27797;DHT22;15177;50.844;4.412;2022-11-23T12:46:04;11.10;99.90
27797;DHT22;15177;50.844;4.412;2022-11-23T12:48:48;11.00;99.90
27797;DHT22;15177;50.844;4.412;2022-11-23T12:51:29;10.50;99.90
27797;DHT22;15177;50.844;4.412;2022-11-23T12:59:46;10.50;99.90
27797;DHT22;15177;50.844;4.412;2022-11-23T13:16:10;10.70;99.90
27797;DHT22;15177;50.844;4.412;2022-11-23T13:21:43;10.50;99.90
27797;DHT22;15177;50.844;4.412;2022-11-23T13:29:54;10.10;99.90
27797;DHT22;15177;50.844;4.412;2022-11-23T13:42:52;9.60;99.90
27797;DHT22;15177;50.844;4.412;2022-11-23T13:50:55;9.70;99.90
27797;DHT22;15177;50.844;4.412;2022-11-23T13:53:25;9.80;99.90
27797;DHT22;15177;50.844;4.412;2022-11-23T13:55:55;9.80;99.90
27797;DHT22;15177;50.844;4.412;2022-11-23T14:00:55;9.80;99.90
27797;DHT22;15177;50.844;4.412;2022-11-23T14:03:49;9.70;99.90
27797;DHT22;15177;50.844;4.412;2022-11-23T14:06:52;9.80;99.90
27797;DHT22;15177;50.844;4.412;2022-11-23T14:09:43;9.80;99.90
27797;DHT22;15177;50.844;4.412;2022-11-23T14:14:56;9.90;99.90
27797;DHT22;15177;50.844;4.412;2022-11-23T14:31:04;10.00;99.90
27797;DHT22;15177;50.844;4.412;2022-11-23T14:33:34;10.00;99.90
27797;DHT22;15177;50.844;4.412;2022-11-23T14:41:55;10.00;99.90
27797;DHT22;15177;50.844;4.412;2022-11-23T14:44:25;10.00;99.90
27797;DHT22;15177;50.844;4.412;2022-11-23T14:47:02;10.00;99.90
27797;DHT22;15177;50.844;4.412;2022-11-23T14:49:28;10.10;99.90
27797;DHT22;15177;50.844;4.412;2022-11-23T14:51:54;10.10;99.90
27797;DHT22;15177;50.844;4.412;2022-11-23T14:54:21;10.20;99.90
27797;DHT22;15177;50.844;4.412;2022-11-23T14:56:49;10.30;99.90
27797;DHT22;15177;50.844;4.412;2022-11-23T15:01:52;10.00;99.90
27797;DHT22;15177;50.844;4.412;2022-11-23T15:04:27;10.10;99.90
27797;DHT22;15177;50.844;4.412;2022-11-23T15:07:15;10.20;99.90
27797;DHT22;15177;50.844;4.412;2022-11-23T15:10:16;10.10;99.90
27797;DHT22;15177;50.844;4.412;2022-11-23T15:12:47;10.10;99.90
27797;DHT22;15177;50.844;4.412;2022-11-23T15:15:25;10.20;99.90
27797;DHT22;15177;50.844;4.412;2022-11-23T15:17:55;10.20;99.90
27797;DHT22;15177;50.844;4.412;2022-11-23T15:20:23;10.20;99.90
27797;DHT22;15177;50.844;4.412;2022-11-23T15:22:49;10.20;99.90
27797;DHT22;15177;50.844;4.412;2022-11-23T15:25:16;10.20;99.90
27797;DHT22;15177;50.844;4.412;2022-11-23T15:27:45;10.30;99.90
27797;DHT22;15177;50.844;4.412;2022-11-23T15:30:21;10.40;99.90
27797;DHT22;15177;50.844;4.412;2022-11-23T15:32:58;10.30;99.90
27797;DHT22;15177;50.844;4.412;2022-11-23T15:35:30;10.30;99.90
27797;DHT22;15177;50.844;4.412;2022-11-23T15:37:58;10.40;99.90
27797;DHT22;15177;50.844;4.412;2022-11-23T15:40:31;10.40;99.90
27797;DHT22;15177;50.844;4.412;2022-11-23T15:42:57;10.40;99.90
27797;DHT22;15177;50.844;4.412;2022-11-23T15:48:29;10.20;99.90
27797;DHT22;15177;50.844;4.412;2022-11-23T15:50:57;10.10;99.90
27797;DHT22;15177;50.844;4.412;2022-11-23T15:53:26;10.10;99.90
27797;DHT22;15177;50.844;4.412;2022-11-23T15:55:54;10.10;99.90
27797;DHT22;15177;50.844;4.412;2022-11-23T15:58:22;10.10;99.90
27797;DHT22;15177;50.844;4.412;2022-11-23T16:01:10;10.10;99.90
27797;DHT22;15177;50.844;4.412;2022-11-23T16:03:53;10.00;99.90
27797;DHT22;15177;50.844;4.412;2022-11-23T16:06:48;9.90;99.90
27797;DHT22;15177;50.844;4.412;2022-11-23T16:11:59;9.70;99.90
27797;DHT22;15177;50.844;4.412;2022-11-23T16:14:30;9.70;99.90
27797;DHT22;15177;50.844;4.412;2022-11-23T16:19:46;9.70;99.90
27797;DHT22;15177;50.844;4.412;2022-11-23T16:22:27;9.70;99.90
27797;DHT22;15177;50.844;4.412;2022-11-23T16:25:04;9.70;99.90
27797;DHT22;15177;50.844;4.412;2022-11-23T16:27:30;9.70;99.90
27797;DHT22;15177;50.844;4.412;2022-11-23T16:29:56;9.70;99.90
27797;DHT22;15177;50.844;4.412;2022-11-23T16:32:30;9.70;99.90
27797;DHT22;15177;50.844;4.412;2022-11-23T16:35:15;9.70;99.90
27797;DHT22;15177;50.844;4.412;2022-11-23T16:37:42;9.70;99.90
27797;DHT22;15177;50.844;4.412;2022-11-23T16:40:08;9.70;99.90
27797;DHT22;15177;50.844;4.412;2022-11-23T16:42:34;9.60;99.90
27797;DHT22;15177;50.844;4.412;2022-11-23T16:44:59;9.50;99.90
27797;DHT22;15177;50.844;4.412;2022-11-23T16:47:26;9.40;99.90
27797;DHT22;15177;50.844;4.412;2022-11-23T16:49:52;9.50;99.90
27797;DHT22;15177;50.844;4.412;2022-11-23T16:52:21;9.60;99.90
27797;DHT22;15177;50.844;4.412;2022-11-23T16:54:49;9.60;99.90
27797;DHT22;15177;50.844;4.412;2022-11-23T16:59:49;9.50;99.90
27797;DHT22;15177;50.844;4.412;2022-11-23T17:02:15;9.50;99.90
27797;DHT22;15177;50.844;4.412;2022-11-23T17:04:42;9.50;99.90
27797;DHT22;15177;50.844;4.412;2022-11-23T17:07:07;9.60;99.90
27797;DHT22;15177;50.844;4.412;2022-11-23T17:09:33;9.40;99.90
27797;DHT22;15177;50.844;4.412;2022-11-23T17:11:59;9.50;99.90
27797;DHT22;15177;50.844;4.412;2022-11-23T17:14:25;9.60;99.90
27797;DHT22;15177;50.844;4.412;2022-11-23T17:16:50;9.50;99.90
27797;DHT22;15177;50.844;4.412;2022-11-23T17:19:19;9.50;99.90
27797;DHT22;15177;50.844;4.412;2022-11-23T17:21:45;9.50;99.90
27797;DHT22;15177;50.844;4.412;2022-11-23T17:24:11;9.70;99.90
27797;DHT22;15177;50.844;4.412;2022-11-23T17:26:43;9.60;99.90
27797;DHT22;15177;50.844;4.412;2022-11-23T17:29:14;9.60;99.90
27797;DHT22;15177;50.844;4.412;2022-11-23T17:31:43;9.50;99.90
27797;DHT22;15177;50.844;4.412;2022-11-23T17:34:11;9.60;99.90
27797;DHT22;15177;50.844;4.412;2022-11-23T17:36:37;9.70;99.90
27797;DHT22;15177;50.844;4.412;2022-11-23T17:39:04;9.70;99.90
27797;DHT22;15177;50.844;4.412;2022-11-23T17:41:29;9.70;99.90
27797;DHT22;15177;50.844;4.412;2022-11-23T17:43:55;9.70;99.90
27797;DHT22;15177;50.844;4.412;2022-11-23T17:46:24;9.70;99.90
27797;DHT22;15177;50.844;4.412;2022-11-23T17:48:57;9.70;99.90
27797;DHT22;15177;50.844;4.412;2022-11-23T17:51:23;9.70;99.90
27797;DHT22;15177;50.844;4.412;2022-11-23T17:53:50;9.70;99.90
27797;DHT22;15177;50.844;4.412;2022-11-23T17:56:22;9.70;99.90
27797;DHT22;15177;50.844;4.412;2022-11-23T17:58:48;9.60;99.90
27797;DHT22;15177;50.844;4.412;2022-11-23T18:01:16;9.70;99.90
27797;DHT22;15177;50.844;4.412;2022-11-23T18:03:43;9.70;99.90
27797;DHT22;15177;50.844;4.412;2022-11-23T18:06:14;9.70;99.90
27797;DHT22;15177;50.844;4.412;2022-11-23T18:08:46;9.70;99.90
27797;DHT22;15177;50.844;4.412;2022-11-23T18:11:12;9.80;99.90
27797;DHT22;15177;50.844;4.412;2022-11-23T18:13:39;9.70;99.90
27797;DHT22;15177;50.844;4.412;2022-11-23T18:16:05;9.70;99.90
27797;DHT22;15177;50.844;4.412;2022-11-23T18:18:31;9.70;99.90
27797;DHT22;15177;50.844;4.412;2022-11-23T18:20:57;9.70;99.90
27797;DHT22;15177;50.844;4.412;2022-11-23T18:23:26;9.70;99.90
27797;DHT22;15177;50.844;4.412;2022-11-23T18:25:59;9.80;99.90
27797;DHT22;15177;50.844;4.412;2022-11-23T18:28:27;9.80;99.90
27797;DHT22;15177;50.844;4.412;2022-11-23T18:30:53;9.90;99.90
27797;DHT22;15177;50.844;4.412;2022-11-23T18:33:19;9.90;99.90